Time;durP1;ratioP1;P1;durP2;ratioP2;P2;SDS_P1;SDS_P2;PMS_P1;PMS_P2;Temp;Humidity;BMP_temperature;BMP_pressure;BME280_temperature;BME280_humidity;BME280_pressure;Samples;Min_cycle;Max_cycle;Signal;HPM_P1;HPM_P2
2022/05/01 00:00:51;;;;;;;8.10;3.53;;;11.00;99.90;;;;;;5085895;28;20215;-54
2022/05/01 00:03:36;;;;;;;3.37;2.73;;;11.00;99.90;;;;;;5087971;28;20193;-50
2022/05/01 00:06:20;;;;;;;2.97;2.50;;;10.90;99.90;;;;;;5084238;28;20228;-47
2022/05/01 00:09:04;;;;;;;2.63;2.40;;;10.90;99.90;;;;;;5086943;28;20246;-53
2022/05/01 00:11:49;;;;;;;3.83;2.77;;;10.90;99.90;;;;;;5087167;28;20268;-52
2022/05/01 00:14:34;;;;;;;3.17;2.27;;;10.90;99.90;;;;;;5084228;28;20281;-43
2022/05/01 00:17:18;;;;;;;2.93;2.10;;;11.00;99.90;;;;;;5086756;28;20201;-51
2022/05/01 00:20:02;;;;;;;3.60;2.40;;;10.90;99.90;;;;;;5085604;28;20306;-56
2022/05/01 00:22:47;;;;;;;3.67;2.20;;;10.90;99.90;;;;;;5085270;28;20233;-54
2022/05/01 00:25:32;;;;;;;2.20;2.00;;;11.00;99.90;;;;;;5087905;28;20287;-51
2022/05/01 00:28:17;;;;;;;3.07;2.73;;;10.90;99.90;;;;;;5085599;28;20213;-53
2022/05/01 00:31:05;;;;;;;3.23;2.37;;;10.90;99.90;;;;;;5086751;28;20192;-54
2022/05/01 00:36:52;;;;;;;4.17;2.83;;;11.00;99.90;;;;;;5086748;28;20204;-48
2022/05/01 00:39:36;;;;;;;3.13;2.67;;;11.00;99.90;;;;;;5084974;28;20300;-51
2022/05/01 00:42:20;;;;;;;3.20;2.40;;;11.10;99.90;;;;;;5087230;28;20200;-50
2022/05/01 00:45:06;;;;;;;2.97;2.60;;;11.00;99.90;;;;;;5083878;28;20181;-46
2022/05/01 00:47:51;;;;;;;3.07;2.77;;;11.00;99.90;;;;;;5085753;28;20197;-56
2022/05/01 00:50:35;;;;;;;3.93;2.77;;;11.00;99.90;;;;;;5086393;28;20334;-58
2022/05/01 00:53:20;;;;;;;2.80;2.57;;;11.10;99.90;;;;;;5083303;28;20197;-52
2022/05/01 00:56:06;;;;;;;2.83;2.30;;;11.00;99.90;;;;;;5086421;28;20204;-57
2022/05/01 00:58:51;;;;;;;3.80;3.13;;;11.00;99.90;;;;;;5084633;28;20267;-57
2022/05/01 01:01:36;;;;;;;3.40;2.53;;;11.00;99.90;;;;;;5083852;28;20201;-47
2022/05/01 01:04:21;;;;;;;2.37;2.17;;;11.00;99.90;;;;;;5087310;28;20278;-51
2022/05/01 01:07:05;;;;;;;3.10;2.50;;;11.00;99.90;;;;;;5084161;28;20229;-55
2022/05/01 01:09:50;;;;;;;2.43;1.77;;;10.90;99.90;;;;;;5084690;28;20343;-49
2022/05/01 01:15:37;;;;;;;5.03;2.47;;;10.80;99.90;;;;;;5085021;28;20308;-57
2022/05/01 01:18:23;;;;;;;3.60;2.37;;;10.80;99.90;;;;;;5085093;28;20248;-53
2022/05/01 01:21:11;;;;;;;3.03;2.17;;;10.70;99.90;;;;;;5087082;28;20216;-50
2022/05/01 01:23:57;;;;;;;3.83;2.47;;;10.70;99.90;;;;;;5082856;28;20267;-55
2022/05/01 01:26:42;;;;;;;2.67;2.43;;;10.70;99.90;;;;;;5085070;28;20189;-55
2022/05/01 01:32:35;;;;;;;2.73;2.23;;;10.80;99.90;;;;;;5060905;28;20225;-51
2022/05/01 01:35:22;;;;;;;4.37;2.80;;;10.80;99.90;;;;;;5085156;28;20247;-52
2022/05/01 01:38:07;;;;;;;2.53;2.33;;;10.90;99.90;;;;;;5085215;28;20193;-56
2022/05/01 01:40:56;;;;;;;3.73;2.90;;;10.80;99.90;;;;;;5082601;28;20185;-55
2022/05/01 01:43:44;;;;;;;3.23;2.00;;;10.80;99.90;;;;;;5085177;28;20205;-53
2022/05/01 01:46:31;;;;;;;2.90;2.60;;;10.80;99.90;;;;;;5084687;28;20234;-58
2022/05/01 01:49:16;;;;;;;5.10;2.53;;;10.80;99.90;;;;;;5082720;28;20196;-51
2022/05/01 01:52:01;;;;;;;2.60;2.37;;;10.80;99.90;;;;;;5085311;28;20595;-54
2022/05/01 01:54:45;;;;;;;3.33;2.80;;;10.80;99.90;;;;;;5083545;28;20204;-55
2022/05/01 01:57:30;;;;;;;3.37;2.87;;;10.80;99.90;;;;;;5084244;28;20212;-50
2022/05/01 02:00:14;;;;;;;5.13;2.27;;;10.80;99.90;;;;;;5084369;28;20228;-51
2022/05/01 02:02:59;;;;;;;3.00;2.30;;;10.80;99.90;;;;;;5082112;28;20258;-57
2022/05/01 02:05:44;;;;;;;3.40;2.40;;;10.70;99.90;;;;;;5083614;28;20264;-57
2022/05/01 02:08:28;;;;;;;3.27;2.90;;;10.60;99.90;;;;;;5085629;28;20247;-57
2022/05/01 02:11:12;;;;;;;2.53;2.20;;;10.60;99.90;;;;;;5081319;28;20607;-55
2022/05/01 02:13:57;;;;;;;3.43;2.60;;;10.60;99.90;;;;;;5085110;28;20285;-51
2022/05/01 02:16:41;;;;;;;3.73;2.30;;;10.50;99.90;;;;;;5084031;28;20247;-58
2022/05/01 02:19:25;;;;;;;2.57;2.17;;;10.60;99.90;;;;;;5082531;28;20266;-46
2022/05/01 02:22:09;;;;;;;4.87;2.97;;;10.50;99.90;;;;;;5084808;28;20232;-47
2022/05/01 02:24:54;;;;;;;3.83;2.90;;;10.40;99.90;;;;;;5081933;28;20224;-51
2022/05/01 02:27:39;;;;;;;2.47;2.30;;;10.50;99.90;;;;;;5083646;28;20193;-52
2022/05/01 02:30:23;;;;;;;3.80;2.33;;;10.60;99.90;;;;;;5085111;28;20221;-48
2022/05/01 02:33:08;;;;;;;2.87;2.20;;;10.50;99.90;;;;;;5081948;28;20272;-54
2022/05/01 02:35:52;;;;;;;5.70;2.47;;;10.50;99.90;;;;;;5083049;28;20199;-50
2022/05/01 02:38:36;;;;;;;3.33;2.90;;;10.60;99.90;;;;;;5083518;28;20309;-48
2022/05/01 02:41:20;;;;;;;4.33;3.37;;;10.50;99.90;;;;;;5080153;28;20235;-54
2022/05/01 02:44:05;;;;;;;3.90;2.87;;;10.40;99.90;;;;;;5083427;28;20220;-49
2022/05/01 02:46:50;;;;;;;4.67;3.17;;;10.40;99.90;;;;;;5083257;28;20196;-54
2022/05/01 02:49:35;;;;;;;4.67;3.37;;;10.40;99.90;;;;;;5082062;28;20215;-56
2022/05/01 02:52:21;;;;;;;5.33;3.17;;;10.40;99.90;;;;;;5084035;28;20189;-57
2022/05/01 02:55:06;;;;;;;4.30;2.77;;;10.30;99.90;;;;;;5082073;28;20196;-55
2022/05/01 02:57:50;;;;;;;3.57;2.50;;;10.30;99.90;;;;;;5083319;28;20197;-53
2022/05/01 03:00:35;;;;;;;4.17;3.40;;;10.30;99.90;;;;;;5084772;28;20204;-51
2022/05/01 03:03:20;;;;;;;4.43;3.13;;;10.20;99.90;;;;;;5081818;28;20189;-50
2022/05/01 03:06:04;;;;;;;2.20;2.00;;;10.20;99.90;;;;;;5083722;28;20301;-54
2022/05/01 03:08:49;;;;;;;4.00;2.17;;;10.20;99.90;;;;;;5064176;28;20193;-56
2022/05/01 03:11:34;;;;;;;7.27;3.50;;;10.20;99.90;;;;;;5061346;28;20197;-57
2022/05/01 03:14:18;;;;;;;3.67;2.27;;;10.20;99.90;;;;;;5064066;28;20220;-49
2022/05/01 03:17:03;;;;;;;3.53;2.77;;;10.20;99.90;;;;;;5062375;28;20201;-54
2022/05/01 03:22:50;;;;;;;4.70;2.70;;;10.20;99.90;;;;;;5084878;28;20212;-48
2022/05/01 03:25:35;;;;;;;4.93;2.47;;;10.20;99.90;;;;;;5086504;28;20204;-50
2022/05/01 03:28:19;;;;;;;5.03;2.83;;;10.20;99.90;;;;;;5085915;28;20197;-44
2022/05/01 03:31:09;;;;;;;3.13;2.47;;;10.20;99.90;;;;;;5088376;28;20192;-49
2022/05/01 03:33:54;;;;;;;3.37;2.70;;;10.20;99.90;;;;;;5085996;28;20223;-55
2022/05/01 03:36:39;;;;;;;4.27;2.93;;;10.20;99.90;;;;;;5087040;28;20204;-52
2022/05/01 03:39:23;;;;;;;3.53;2.27;;;10.20;99.90;;;;;;5088638;28;20246;-51
2022/05/01 03:42:08;;;;;;;4.70;2.67;;;10.20;99.90;;;;;;5084601;28;20246;-50
2022/05/01 03:44:52;;;;;;;4.83;2.87;;;10.20;99.90;;;;;;5086831;28;20216;-45
2022/05/01 03:47:37;;;;;;;4.73;3.43;;;10.10;99.90;;;;;;5086670;28;20197;-52
2022/05/01 03:50:21;;;;;;;5.93;3.20;;;10.20;99.90;;;;;;5084812;28;20196;-50
2022/05/01 03:53:07;;;;;;;5.40;3.43;;;10.10;99.90;;;;;;5087277;28;20197;-47
2022/05/01 03:55:51;;;;;;;3.70;2.87;;;10.10;99.90;;;;;;5086244;28;20212;-54
2022/05/01 03:58:36;;;;;;;4.23;3.27;;;10.10;99.90;;;;;;5085237;28;20268;-48
2022/05/01 04:01:20;;;;;;;5.57;2.87;;;10.10;99.90;;;;;;5087972;28;20217;-49
2022/05/01 04:04:04;;;;;;;6.03;3.37;;;10.20;99.90;;;;;;5085523;28;20215;-50
2022/05/01 04:06:48;;;;;;;5.30;3.07;;;10.10;99.90;;;;;;5085976;28;20278;-53
2022/05/01 04:09:34;;;;;;;5.43;3.07;;;10.10;99.90;;;;;;5088334;28;20193;-53
2022/05/01 04:12:17;;;;;;;3.70;2.90;;;10.20;99.90;;;;;;5084082;28;20270;-49
2022/05/01 04:15:03;;;;;;;4.33;3.07;;;10.20;99.90;;;;;;5086761;28;20221;-53
2022/05/01 04:17:47;;;;;;;4.47;3.00;;;10.10;99.90;;;;;;5083235;28;20217;-56
2022/05/01 04:20:32;;;;;;;3.47;2.53;;;10.10;99.90;;;;;;5064113;28;20229;-53
2022/05/01 04:23:17;;;;;;;6.03;3.40;;;10.00;99.90;;;;;;5067310;28;20251;-50
2022/05/01 04:26:03;;;;;;;4.97;3.33;;;10.00;99.90;;;;;;5065729;28;20265;-50
2022/05/01 04:31:51;;;;;;;2.53;2.20;;;10.10;99.90;;;;;;5071207;28;20216;-49
2022/05/01 04:34:36;;;;;;;5.10;3.47;;;10.10;99.90;;;;;;5064059;28;20185;-54
2022/05/01 04:37:20;;;;;;;5.07;2.73;;;10.10;99.90;;;;;;5064657;28;20201;-49
2022/05/01 04:40:05;;;;;;;5.97;3.03;;;10.10;99.90;;;;;;5066823;28;20224;-49
2022/05/01 04:42:49;;;;;;;3.93;2.73;;;10.00;99.90;;;;;;5063847;28;20198;-51
2022/05/01 04:45:35;;;;;;;3.83;3.37;;;10.10;99.90;;;;;;5079559;28;20205;-53
2022/05/01 04:48:20;;;;;;;5.53;3.00;;;10.10;99.90;;;;;;5083596;28;20196;-51
2022/05/01 04:51:05;;;;;;;4.17;2.80;;;10.10;99.90;;;;;;5080955;28;20224;-49
2022/05/01 04:53:49;;;;;;;4.77;2.93;;;10.10;99.90;;;;;;5083819;28;20246;-46
2022/05/01 04:59:37;;;;;;;4.87;2.97;;;10.10;99.90;;;;;;5083591;28;20219;-54
2022/05/01 05:02:21;;;;;;;6.33;2.90;;;10.00;99.90;;;;;;5083157;28;20239;-49
2022/05/01 05:05:09;;;;;;;4.13;2.90;;;10.00;99.90;;;;;;5083833;28;20310;-48
2022/05/01 05:07:55;;;;;;;5.93;2.97;;;10.00;99.90;;;;;;5081959;28;20330;-44
2022/05/01 05:10:39;;;;;;;3.90;2.50;;;10.00;99.90;;;;;;5082854;28;20324;-55
2022/05/01 05:13:27;;;;;;;6.57;3.43;;;10.10;99.90;;;;;;5081391;28;20200;-53
2022/05/01 05:16:14;;;;;;;4.50;3.03;;;10.10;99.90;;;;;;5082945;28;20230;-55
2022/05/01 05:18:58;;;;;;;3.50;2.63;;;10.30;99.90;;;;;;5082697;28;20232;-54
2022/05/01 05:21:42;;;;;;;6.40;3.37;;;10.30;99.90;;;;;;5082924;28;20192;-56
2022/05/01 05:24:28;;;;;;;4.77;2.97;;;10.30;99.90;;;;;;5082773;28;20445;-53
2022/05/01 05:27:13;;;;;;;4.67;3.33;;;10.20;99.90;;;;;;5086426;28;20312;-48
2022/05/01 05:29:58;;;;;;;4.90;2.90;;;10.30;99.90;;;;;;5082225;28;20197;-47
2022/05/01 05:32:42;;;;;;;3.87;3.07;;;10.20;99.90;;;;;;5082523;28;20209;-53
2022/05/01 05:35:26;;;;;;;4.03;2.80;;;10.30;99.90;;;;;;5079132;28;20193;-52
2022/05/01 05:38:11;;;;;;;6.67;3.63;;;10.30;99.90;;;;;;5080491;28;20193;-45
2022/05/01 05:40:55;;;;;;;7.13;4.57;;;10.40;99.90;;;;;;5085272;28;20196;-53
2022/05/01 05:43:40;;;;;;;6.53;4.03;;;10.40;99.90;;;;;;5082938;28;20205;-57
2022/05/01 05:46:24;;;;;;;5.03;3.57;;;10.30;99.90;;;;;;5083373;28;20185;-47
2022/05/01 05:49:09;;;;;;;5.93;3.93;;;10.40;99.90;;;;;;5083405;28;20192;-47
2022/05/01 05:51:54;;;;;;;6.03;3.63;;;10.40;99.90;;;;;;5082168;28;20222;-55
2022/05/01 05:54:39;;;;;;;4.27;3.00;;;10.40;99.90;;;;;;5082141;28;20192;-49
2022/05/01 05:57:23;;;;;;;6.03;2.87;;;10.40;99.90;;;;;;5084740;28;20185;-64
2022/05/01 06:00:08;;;;;;;2.97;2.57;;;10.50;99.90;;;;;;5080020;28;20220;-54
2022/05/01 06:02:52;;;;;;;5.90;3.50;;;10.60;99.90;;;;;;5084355;28;20197;-55
2022/05/01 06:05:37;;;;;;;4.73;3.13;;;10.50;99.90;;;;;;5079969;28;20298;-56
2022/05/01 06:08:21;;;;;;;3.03;2.67;;;10.60;99.90;;;;;;5081316;28;20200;-56
2022/05/01 06:11:06;;;;;;;5.27;3.53;;;10.50;99.90;;;;;;5077244;28;20250;-55
2022/05/01 06:13:52;;;;;;;5.43;3.57;;;10.60;99.90;;;;;;5082593;28;20254;-51
2022/05/01 06:16:38;;;;;;;4.27;2.90;;;10.60;99.90;;;;;;5081895;28;20235;-53
2022/05/01 06:19:22;;;;;;;4.97;3.23;;;10.50;99.90;;;;;;5082671;28;20278;-51
2022/05/01 06:22:06;;;;;;;7.67;3.83;;;10.50;99.90;;;;;;5078311;28;20230;-50
2022/05/01 06:24:51;;;;;;;5.33;3.50;;;10.60;99.90;;;;;;5077500;28;20254;-56
2022/05/01 06:27:36;;;;;;;7.00;3.77;;;10.60;99.90;;;;;;5071992;28;20197;-58
2022/05/01 06:30:21;;;;;;;4.43;3.53;;;10.60;99.90;;;;;;5081722;28;20246;-50
2022/05/01 06:33:09;;;;;;;4.33;2.70;;;10.70;99.90;;;;;;5081667;28;20192;-49
2022/05/01 06:35:54;;;;;;;6.70;3.57;;;10.70;99.90;;;;;;5082380;28;20327;-50
2022/05/01 06:38:39;;;;;;;3.97;2.67;;;10.70;99.90;;;;;;5062002;28;20233;-57
2022/05/01 06:41:23;;;;;;;2.90;2.70;;;10.70;99.90;;;;;;5065061;28;20197;-55
2022/05/01 06:44:08;;;;;;;3.90;2.80;;;10.60;99.90;;;;;;5063288;28;20237;-47
2022/05/01 06:46:53;;;;;;;4.67;3.80;;;10.70;99.90;;;;;;5080851;28;20243;-51
2022/05/01 06:49:38;;;;;;;7.63;4.47;;;10.80;99.90;;;;;;5069582;28;20207;-46
2022/05/01 06:52:23;;;;;;;10.23;4.93;;;11.10;99.90;;;;;;5081482;28;20223;-52
2022/05/01 06:55:09;;;;;;;4.93;3.90;;;11.00;99.90;;;;;;5080656;28;20205;-46
2022/05/01 06:57:54;;;;;;;8.10;3.67;;;10.90;99.90;;;;;;5084020;28;20217;-56
2022/05/01 07:00:38;;;;;;;7.50;3.80;;;10.80;99.90;;;;;;5080847;28;20220;-51
2022/05/01 07:03:23;;;;;;;5.03;2.93;;;10.90;99.90;;;;;;5083186;28;20247;-46
2022/05/01 07:06:07;;;;;;;4.97;3.23;;;10.90;99.90;;;;;;5080300;28;20313;-56
2022/05/01 07:08:52;;;;;;;5.73;3.10;;;11.20;99.90;;;;;;5082074;28;20276;-52
2022/05/01 07:11:36;;;;;;;8.17;4.83;;;11.30;99.90;;;;;;5084433;28;20216;-52
2022/05/01 07:14:20;;;;;;;6.63;4.10;;;11.30;99.90;;;;;;5076449;28;20193;-56
2022/05/01 07:17:05;;;;;;;7.43;3.70;;;11.30;99.90;;;;;;5075416;28;20197;-56
2022/05/01 07:19:49;;;;;;;6.20;4.10;;;11.50;99.90;;;;;;5073882;28;20216;-47
2022/05/01 07:22:34;;;;;;;6.17;3.77;;;11.50;99.90;;;;;;5075972;28;20193;-58
2022/05/01 07:25:19;;;;;;;5.60;3.53;;;11.60;99.90;;;;;;5079176;28;20208;-52
2022/05/01 07:28:03;;;;;;;6.73;3.67;;;11.90;99.90;;;;;;5080745;28;20189;-58
2022/05/01 07:30:48;;;;;;;6.17;3.47;;;11.90;99.90;;;;;;5076065;28;20254;-50
2022/05/01 07:33:32;;;;;;;7.17;3.90;;;11.90;99.90;;;;;;5080789;28;20758;-51
2022/05/01 07:36:19;;;;;;;6.23;4.03;;;12.20;99.90;;;;;;5076072;28;20221;-55
2022/05/01 07:39:03;;;;;;;5.33;4.10;;;12.10;99.90;;;;;;5075458;28;20270;-55
2022/05/01 07:41:48;;;;;;;5.10;3.77;;;12.30;99.90;;;;;;5075730;28;20340;-47
2022/05/01 07:44:32;;;;;;;8.93;5.27;;;12.40;99.90;;;;;;5075642;28;20301;-53
2022/05/01 07:47:17;;;;;;;4.03;3.47;;;12.30;99.90;;;;;;5079884;28;20193;-55
2022/05/01 07:50:01;;;;;;;6.03;4.07;;;12.10;99.90;;;;;;5077763;28;20211;-46
2022/05/01 07:52:46;;;;;;;9.40;5.57;;;12.10;99.90;;;;;;5075741;28;20255;-51
2022/05/01 07:55:30;;;;;;;17.07;10.10;;;12.30;99.90;;;;;;5077127;28;20196;-53
2022/05/01 07:58:14;;;;;;;9.63;6.83;;;12.60;99.90;;;;;;5082767;28;20193;-57
2022/05/01 08:01:01;;;;;;;5.80;4.17;;;12.80;99.90;;;;;;5079895;28;20228;-43
2022/05/01 08:06:48;;;;;;;5.37;4.03;;;12.90;99.90;;;;;;5072447;28;20303;-58
2022/05/01 08:09:33;;;;;;;7.30;4.90;;;12.90;99.90;;;;;;5078761;28;20196;-54
2022/05/01 08:12:18;;;;;;;6.90;4.03;;;12.80;99.90;;;;;;5074219;28;20243;-53
2022/05/01 08:15:02;;;;;;;4.03;3.20;;;12.30;99.90;;;;;;5073702;28;20215;-60
2022/05/01 08:17:47;;;;;;;15.50;8.57;;;11.90;99.90;;;;;;5082330;28;20307;-56
2022/05/01 08:23:36;;;;;;;7.20;5.03;;;12.10;99.90;;;;;;5079655;28;20193;-47
2022/05/01 08:26:22;;;;;;;6.43;4.80;;;12.10;99.90;;;;;;5073306;28;20200;-48
2022/05/01 08:29:06;;;;;;;8.83;4.93;;;12.10;99.90;;;;;;5082901;28;20188;-47
2022/05/01 08:31:50;;;;;;;6.63;4.93;;;12.30;99.90;;;;;;5080132;28;20201;-55
2022/05/01 08:34:35;;;;;;;7.20;4.80;;;12.40;99.90;;;;;;5075564;28;20216;-57
2022/05/01 08:37:20;;;;;;;7.97;5.00;;;12.70;99.90;;;;;;5079687;28;20225;-54
2022/05/01 08:40:04;;;;;;;9.10;5.13;;;12.50;99.90;;;;;;5079360;28;20248;-51
2022/05/01 08:42:50;;;;;;;6.97;4.87;;;12.50;99.90;;;;;;5081344;28;20213;-49
2022/05/01 08:45:57;;;;;;;5.17;4.30;;;12.70;99.90;;;;;;5078708;28;20193;-58
2022/05/01 08:49:04;;;;;;;6.67;4.50;;;12.70;99.90;;;;;;5089778;28;20196;-56
2022/05/01 08:51:50;;;;;;;5.30;4.50;;;12.80;99.90;;;;;;5082257;28;20231;-52
2022/05/01 08:54:36;;;;;;;6.07;4.73;;;13.00;99.90;;;;;;5078286;28;20209;-52
2022/05/01 08:57:22;;;;;;;4.77;3.97;;;13.00;99.90;;;;;;5081843;28;20192;-50
2022/05/01 09:00:07;;;;;;;5.53;4.30;;;12.80;99.90;;;;;;5083240;28;20221;-56
2022/05/01 09:02:52;;;;;;;6.80;4.73;;;13.00;99.90;;;;;;5080681;28;20193;-50
2022/05/01 09:05:36;;;;;;;6.07;4.37;;;13.00;99.90;;;;;;5073404;28;20233;-56
2022/05/01 09:08:23;;;;;;;6.77;4.70;;;13.20;99.90;;;;;;5078447;28;20200;-49
2022/05/01 09:14:12;;;;;;;4.27;3.87;;;13.20;99.90;;;;;;5077880;28;20193;-54
2022/05/01 09:17:09;;;;;;;4.37;4.00;;;12.90;99.90;;;;;;5075269;28;20185;-58
2022/05/01 09:20:06;;;;;;;5.93;4.30;;;13.40;99.90;;;;;;5070094;28;20305;-58
2022/05/01 09:22:55;;;;;;;5.73;4.37;;;13.60;99.90;;;;;;5070253;28;20201;-55
2022/05/01 09:25:39;;;;;;;6.70;4.33;;;13.10;99.90;;;;;;5077314;28;20213;-55
2022/05/01 09:28:24;;;;;;;6.70;4.73;;;13.10;99.90;;;;;;5079254;28;20235;-54
2022/05/01 09:31:08;;;;;;;8.43;4.97;;;13.10;99.90;;;;;;5082093;28;20201;-42
2022/05/01 09:34:30;;;;;;;7.93;5.27;;;13.10;99.90;;;;;;5080952;28;20193;-45
2022/05/01 09:37:19;;;;;;;6.50;5.17;;;13.10;99.90;;;;;;5079805;28;20285;-48
2022/05/01 09:40:04;;;;;;;5.67;4.40;;;13.10;99.90;;;;;;5079298;28;20228;-48
2022/05/01 09:42:48;;;;;;;6.43;4.17;;;12.90;99.90;;;;;;5076717;28;20196;-47
2022/05/01 09:45:33;;;;;;;6.50;4.03;;;12.90;99.90;;;;;;5073696;28;20303;-51
2022/05/01 09:48:21;;;;;;;6.53;4.33;;;12.90;99.90;;;;;;5080535;28;20270;-48
2022/05/01 09:51:18;;;;;;;10.07;4.93;;;13.10;99.90;;;;;;5074406;28;20268;-51
2022/05/01 09:54:06;;;;;;;9.37;4.57;;;12.80;99.90;;;;;;5073392;28;20185;-53
2022/05/01 09:56:54;;;;;;;4.27;3.87;;;13.10;99.90;;;;;;5079572;28;20189;-46
2022/05/01 09:59:46;;;;;;;6.63;4.70;;;13.30;99.90;;;;;;5073108;28;20220;-49
2022/05/01 10:02:31;;;;;;;4.70;4.13;;;13.30;99.90;;;;;;5078853;28;20251;-51
2022/05/01 10:05:16;;;;;;;8.77;6.47;;;13.60;99.90;;;;;;5075834;28;20291;-43
2022/05/01 10:08:00;;;;;;;4.63;4.13;;;13.90;99.90;;;;;;5080030;28;20214;-49
2022/05/01 10:10:46;;;;;;;7.77;5.47;;;14.20;99.90;;;;;;5076367;28;20192;-45
2022/05/01 10:13:31;;;;;;;6.87;4.40;;;13.80;99.90;;;;;;5080267;28;20231;-50
2022/05/01 10:16:16;;;;;;;4.57;4.07;;;13.90;99.90;;;;;;5066295;28;20233;-54
2022/05/01 10:19:01;;;;;;;4.27;3.87;;;13.60;99.90;;;;;;5071996;28;20283;-47
2022/05/01 10:21:48;;;;;;;6.97;4.23;;;13.70;99.90;;;;;;5077499;28;20247;-48
2022/05/01 10:24:34;;;;;;;6.47;4.30;;;13.90;99.90;;;;;;5069511;28;20204;-50
2022/05/01 10:27:34;;;;;;;17.07;9.70;;;13.80;99.90;;;;;;5074572;28;20197;-44
2022/05/01 10:33:50;;;;;;;8.60;5.03;;;14.40;99.90;;;;;;5070790;28;20223;-56
2022/05/01 10:37:00;;;;;;;5.23;4.60;;;14.60;99.90;;;;;;5065298;28;20744;-56
2022/05/01 10:39:46;;;;;;;6.70;5.00;;;14.60;99.90;;;;;;5075297;28;20224;-54
2022/05/01 10:42:43;;;;;;;5.50;4.33;;;14.60;99.90;;;;;;5075733;28;20212;-55
2022/05/01 10:45:27;;;;;;;5.73;4.37;;;14.90;99.90;;;;;;5068888;28;20252;-46
2022/05/01 10:48:15;;;;;;;6.43;3.97;;;14.40;99.90;;;;;;5074082;28;20190;-52
2022/05/01 10:51:27;;;;;;;5.13;3.97;;;14.60;99.90;;;;;;5076789;28;20206;-52
2022/05/01 10:54:15;;;;;;;14.57;9.50;;;14.50;99.90;;;;;;5070600;28;20281;-45
2022/05/01 10:57:08;;;;;;;7.53;5.20;;;14.50;99.90;;;;;;5075094;28;20269;-50
2022/05/01 11:00:13;;;;;;;4.97;3.73;;;14.70;99.90;;;;;;5077374;28;20281;-45
2022/05/01 11:02:58;;;;;;;6.13;4.10;;;14.80;99.90;;;;;;5065553;28;20197;-48
2022/05/01 11:05:43;;;;;;;4.87;4.33;;;14.70;99.90;;;;;;5072280;28;20372;-50
2022/05/01 11:08:31;;;;;;;6.27;4.07;;;14.50;99.90;;;;;;5077841;28;20200;-51
2022/05/01 11:11:16;;;;;;;5.27;3.80;;;14.50;99.90;;;;;;5070538;28;20198;-54
2022/05/01 11:14:02;;;;;;;3.97;3.40;;;14.80;99.90;;;;;;5075894;28;20201;-49
2022/05/01 11:16:52;;;;;;;7.13;5.00;;;15.00;99.90;;;;;;5070710;28;20193;-57
2022/05/01 11:19:50;;;;;;;6.13;4.03;;;15.00;99.90;;;;;;5073427;28;20241;-49
2022/05/01 11:22:35;;;;;;;7.17;3.97;;;15.00;99.90;;;;;;5076755;28;20323;-51
2022/05/01 11:25:33;;;;;;;4.40;3.87;;;15.30;99.90;;;;;;5070462;28;20196;-58
2022/05/01 11:28:47;;;;;;;23.57;14.00;;;15.70;99.90;;;;;;5088264;28;20258;-50
2022/05/01 11:31:38;;;;;;;5.87;4.03;;;16.30;99.90;;;;;;5071776;28;20201;-56
2022/05/01 11:34:22;;;;;;;9.57;5.37;;;16.70;99.90;;;;;;5076265;28;20252;-55
2022/05/01 11:37:08;;;;;;;8.40;7.07;;;17.10;99.90;;;;;;5065620;28;20224;-50
2022/05/01 11:39:53;;;;;;;4.23;3.83;;;16.90;99.90;;;;;;5073615;28;20290;-51
2022/05/01 11:42:37;;;;;;;3.70;3.40;;;17.20;99.90;;;;;;5079799;28;20201;-53
2022/05/01 11:45:32;;;;;;;4.70;3.97;;;17.40;99.90;;;;;;5070923;28;20219;-48
2022/05/01 11:48:19;;;;;;;5.17;3.30;;;16.70;99.90;;;;;;5081287;28;20237;-56
2022/05/01 11:51:04;;;;;;;4.03;3.63;;;17.90;99.90;;;;;;5083467;28;20227;-53
2022/05/01 11:53:51;;;;;;;5.07;4.57;;;17.40;99.90;;;;;;5076333;28;20198;-56
2022/05/01 12:02:42;;;;;;;3.37;3.17;;;17.30;99.90;;;;;;5072113;28;20263;-54
2022/05/01 12:05:49;;;;;;;4.30;3.27;;;17.40;99.90;;;;;;5078097;28;20241;-56
2022/05/01 12:08:33;;;;;;;4.30;3.80;;;17.60;99.90;;;;;;5078272;28;20209;-52
2022/05/01 12:11:32;;;;;;;3.70;3.40;;;17.50;99.90;;;;;;5071869;28;20299;-56
2022/05/01 12:14:16;;;;;;;7.30;3.50;;;16.60;99.90;;;;;;5078971;28;20283;-51
2022/05/01 12:17:00;;;;;;;4.03;3.23;;;16.80;99.90;;;;;;5079529;28;20193;-52
2022/05/01 12:19:47;;;;;;;4.43;3.30;;;16.70;99.90;;;;;;5072036;28;20356;-49
2022/05/01 12:22:37;;;;;;;3.60;3.30;;;16.30;99.90;;;;;;5076801;28;20262;-49
2022/05/01 12:25:24;;;;;;;4.43;3.13;;;16.30;99.90;;;;;;5075217;28;20200;-56
2022/05/01 12:28:10;;;;;;;3.97;3.67;;;16.10;99.90;;;;;;5077827;28;20221;-45
2022/05/01 12:30:57;;;;;;;6.63;3.10;;;15.90;99.90;;;;;;5080060;28;20194;-53
2022/05/01 12:33:51;;;;;;;4.27;3.87;;;16.00;99.90;;;;;;5080242;28;20262;-56
2022/05/01 12:36:36;;;;;;;5.30;3.93;;;15.70;99.90;;;;;;5078735;28;20199;-54
2022/05/01 12:39:22;;;;;;;3.73;3.40;;;15.90;99.90;;;;;;5079764;28;20232;-54
2022/05/01 12:45:36;;;;;;;3.27;3.07;;;16.40;99.90;;;;;;5075896;28;20188;-52
2022/05/01 12:48:21;;;;;;;4.70;3.63;;;16.60;99.90;;;;;;5081229;28;20215;-53
2022/05/01 12:51:05;;;;;;;4.10;3.70;;;16.40;99.90;;;;;;5075554;28;20235;-52
2022/05/01 12:53:49;;;;;;;3.90;3.50;;;16.70;99.90;;;;;;5080408;28;20236;-51
2022/05/01 12:56:34;;;;;;;3.57;3.17;;;16.30;99.90;;;;;;5077233;28;20261;-56
2022/05/01 12:59:30;;;;;;;4.03;3.60;;;15.90;99.90;;;;;;5074442;28;20301;-55
2022/05/01 13:02:18;;;;;;;3.73;3.43;;;16.40;99.90;;;;;;5080426;28;20189;-52
2022/05/01 13:05:03;;;;;;;3.33;3.13;;;16.80;99.90;;;;;;5074492;28;20251;-50
2022/05/01 13:07:47;;;;;;;4.70;3.47;;;17.10;99.90;;;;;;5080182;28;20249;-47
2022/05/01 13:10:32;;;;;;;3.70;3.40;;;17.70;99.90;;;;;;5081400;28;20233;-50
2022/05/01 13:13:17;;;;;;;3.87;3.50;;;17.50;99.90;;;;;;5077136;28;20201;-54
2022/05/01 13:16:05;;;;;;;3.57;3.27;;;17.60;99.90;;;;;;5072790;28;20201;-48
2022/05/01 13:18:52;;;;;;;4.00;3.47;;;17.70;99.90;;;;;;5080733;28;20603;-49
2022/05/01 13:21:40;;;;;;;3.70;3.13;;;17.90;99.90;;;;;;5067436;28;20220;-48
2022/05/01 13:24:29;;;;;;;3.67;3.37;;;18.00;99.90;;;;;;5073057;28;20254;-56
2022/05/01 13:27:14;;;;;;;3.97;3.67;;;17.70;99.90;;;;;;5077601;28;20197;-53
2022/05/01 13:29:58;;;;;;;3.93;3.60;;;16.90;99.90;;;;;;5074081;28;20201;-54
2022/05/01 13:32:43;;;;;;;3.80;3.00;;;17.00;99.90;;;;;;5077725;28;20185;-47
2022/05/01 13:35:27;;;;;;;4.57;3.30;;;17.30;99.90;;;;;;5071992;28;20216;-53
2022/05/01 13:38:12;;;;;;;3.37;3.00;;;17.20;99.90;;;;;;5057028;28;20201;-54
2022/05/01 13:47:06;;;;;;;4.43;3.33;;;18.30;99.90;;;;;;5072093;28;20208;-46
2022/05/01 13:49:51;;;;;;;3.13;2.90;;;18.60;99.90;;;;;;5077676;28;20271;-49
2022/05/01 13:52:35;;;;;;;3.63;3.30;;;19.10;99.90;;;;;;5082708;28;20200;-45
2022/05/01 13:55:19;;;;;;;3.15;2.92;;;19.70;99.10;;;;;;5071317;28;20298;-52
2022/05/01 13:58:04;;;;;;;3.90;3.40;;;21.20;98.80;;;;;;5072742;28;20282;-50
2022/05/01 14:00:49;;;;;;;3.42;3.13;;;22.40;96.50;;;;;;5077202;28;20217;-56
2022/05/01 14:03:33;;;;;;;3.92;3.63;;;22.40;96.00;;;;;;5078820;28;20228;-53
2022/05/01 14:06:17;;;;;;;6.35;3.65;;;22.80;95.20;;;;;;5069319;28;20230;-46
2022/05/01 14:09:02;;;;;;;3.83;3.53;;;24.60;92.60;;;;;;5071769;28;20272;-49
2022/05/01 14:11:49;;;;;;;3.88;3.55;;;24.10;91.40;;;;;;5079637;28;20247;-50
2022/05/01 14:14:33;;;;;;;3.67;3.30;;;25.10;90.70;;;;;;5076061;28;20197;-47
2022/05/01 14:17:18;;;;;;;3.60;3.30;;;25.50;90.10;;;;;;5067651;28;20193;-51
2022/05/01 14:20:03;;;;;;;3.75;3.45;;;26.10;88.20;;;;;;5070917;28;20217;-51
2022/05/01 14:22:48;;;;;;;3.42;3.13;;;26.00;83.00;;;;;;5077610;28;20238;-52
2022/05/01 14:25:33;;;;;;;4.05;3.65;;;23.90;88.00;;;;;;5071629;28;20325;-54
2022/05/01 14:28:17;;;;;;;4.30;3.75;;;22.70;90.70;;;;;;5080573;28;20193;-51
2022/05/01 14:31:11;;;;;;;3.13;2.92;;;22.40;90.50;;;;;;5079221;28;20235;-57
2022/05/01 14:34:09;;;;;;;2.55;2.35;;;21.30;91.70;;;;;;5074140;28;20298;-55
2022/05/01 14:36:59;;;;;;;9.23;7.25;;;21.30;91.70;;;;;;5077897;28;20207;-48
2022/05/01 14:39:44;;;;;;;8.02;4.55;;;21.80;90.90;;;;;;5078692;28;20326;-58
2022/05/01 14:42:32;;;;;;;4.13;3.75;;;21.80;90.50;;;;;;5075139;28;20205;-49
2022/05/01 14:45:22;;;;;;;2.70;2.50;;;22.30;90.60;;;;;;5074457;28;20181;-52
2022/05/01 14:48:26;;;;;;;2.85;2.65;;;22.10;90.50;;;;;;5076611;28;20271;-57
2022/05/01 14:51:10;;;;;;;3.97;2.47;;;21.90;91.00;;;;;;5075105;28;20191;-53
2022/05/01 14:53:55;;;;;;;2.50;2.38;;;21.70;91.00;;;;;;5071388;28;20247;-51
2022/05/01 14:56:40;;;;;;;2.58;2.47;;;22.50;90.40;;;;;;5067686;28;20271;-56
2022/05/01 15:09:08;;;;;;;2.70;2.50;;;26.30;78.50;;;;;;5072280;28;20237;-47
2022/05/01 15:11:53;;;;;;;2.67;2.55;;;25.30;81.20;;;;;;5069213;28;20204;-52
2022/05/01 15:14:38;;;;;;;2.67;2.47;;;23.10;86.20;;;;;;5076244;28;20230;-57
2022/05/01 15:17:30;;;;;;;2.50;2.00;;;22.50;87.20;;;;;;5076845;28;20192;-53
2022/05/01 15:20:24;;;;;;;2.17;2.08;;;22.10;86.20;;;;;;5082076;28;20216;-47